createdAt,value
2023-07-27T00:00:33.900Z,11.79
2023-07-27T00:03:00.757Z,11.73
2023-07-27T00:05:27.602Z,11.70
2023-07-27T00:07:54.629Z,11.81
2023-07-27T00:10:21.450Z,11.79
2023-07-27T00:12:48.222Z,11.79
2023-07-27T00:15:15.016Z,11.78
2023-07-27T00:17:41.866Z,11.71
2023-07-27T00:20:09.006Z,11.70
2023-07-27T00:22:35.786Z,11.79
2023-07-27T00:25:02.564Z,11.73
2023-07-27T00:27:29.372Z,11.77
2023-07-27T00:29:56.185Z,11.74
2023-07-27T00:32:23.338Z,11.72
2023-07-27T00:34:53.348Z,11.71
2023-07-27T00:37:20.141Z,11.70
2023-07-27T00:39:47.012Z,11.67
2023-07-27T00:42:13.858Z,11.67
2023-07-27T00:44:40.621Z,11.60
2023-07-27T00:47:07.615Z,11.60
2023-07-27T00:49:35.218Z,11.60
2023-07-27T00:52:07.068Z,11.58
2023-07-27T00:54:34.944Z,11.50
2023-07-27T00:57:02.444Z,11.56
2023-07-27T00:59:29.914Z,11.53
2023-07-27T01:01:57.318Z,11.48
2023-07-27T01:04:24.231Z,11.49
2023-07-27T01:06:51.413Z,11.43
2023-07-27T01:09:18.299Z,11.50
2023-07-27T01:12:14.398Z,11.49
2023-07-27T01:14:58.333Z,11.48
2023-07-27T01:17:34.092Z,11.47
2023-07-27T01:20:00.837Z,11.47
2023-07-27T01:22:33.532Z,11.45
2023-07-27T01:25:03.259Z,11.38
2023-07-27T01:27:41.891Z,11.40
2023-07-27T01:30:28.529Z,11.39
2023-07-27T01:33:06.416Z,11.36
2023-07-27T01:35:39.249Z,11.36
2023-07-27T01:38:06.920Z,11.33
2023-07-27T01:40:35.596Z,11.32
2023-07-27T01:43:03.514Z,11.31
2023-07-27T01:45:30.320Z,11.28
2023-07-27T01:47:58.224Z,11.25
2023-07-27T01:50:25.428Z,11.26
2023-07-27T01:52:53.908Z,11.21
2023-07-27T01:55:23.524Z,11.19
2023-07-27T01:57:51.505Z,11.16
2023-07-27T02:00:18.360Z,11.16
2023-07-27T02:02:45.770Z,11.12
2023-07-27T02:05:13.815Z,11.07
2023-07-27T02:07:40.592Z,11.08
2023-07-27T02:10:12.096Z,11.05
2023-07-27T02:12:45.527Z,11.06
2023-07-27T02:15:18.386Z,11.05
2023-07-27T02:17:53.153Z,11.02
2023-07-27T02:20:21.316Z,10.99
2023-07-27T02:22:48.774Z,11.01
2023-07-27T02:25:15.982Z,10.95
2023-07-27T02:27:42.764Z,10.98
2023-07-27T02:30:09.693Z,10.95
2023-07-27T02:32:36.561Z,10.97
2023-07-27T02:35:03.751Z,10.94
2023-07-27T02:37:30.544Z,10.93
2023-07-27T02:39:57.349Z,10.92
2023-07-27T02:42:24.103Z,10.92
2023-07-27T02:44:50.902Z,10.87
2023-07-27T02:47:18.600Z,10.85
2023-07-27T02:49:45.527Z,10.83
2023-07-27T02:52:12.309Z,10.83
2023-07-27T02:54:39.219Z,10.82
2023-07-27T02:57:06.169Z,10.84
2023-07-27T02:59:32.989Z,10.76
2023-07-27T03:01:59.811Z,10.80
2023-07-27T03:04:26.712Z,10.72
2023-07-27T03:06:53.475Z,10.75
2023-07-27T03:09:20.241Z,10.76
2023-07-27T03:11:47.024Z,10.74
2023-07-27T03:14:13.814Z,10.68
2023-07-27T03:16:40.609Z,10.72
2023-07-27T03:19:07.404Z,10.73
2023-07-27T03:21:34.219Z,10.73
2023-07-27T03:24:01.017Z,10.76
2023-07-27T03:26:27.960Z,10.72
2023-07-27T03:28:54.903Z,10.75
2023-07-27T03:31:27.287Z,10.78
2023-07-27T03:33:54.240Z,10.78
2023-07-27T03:36:22.134Z,10.80
2023-07-27T03:38:49.088Z,10.72
2023-07-27T03:41:16.006Z,10.86
2023-07-27T03:43:42.795Z,10.84
2023-07-27T03:46:09.631Z,10.91
2023-07-27T03:48:36.796Z,10.94
2023-07-27T03:51:04.455Z,10.94
2023-07-27T03:53:31.521Z,10.97
2023-07-27T03:55:58.385Z,10.97
2023-07-27T03:58:25.194Z,11.02
2023-07-27T04:00:52.131Z,11.06
2023-07-27T04:03:18.948Z,11.09
2023-07-27T04:05:45.765Z,11.09
2023-07-27T04:08:12.580Z,11.12
2023-07-27T04:10:40.594Z,11.15
2023-07-27T04:13:07.420Z,11.15
2023-07-27T04:15:35.289Z,11.18
2023-07-27T04:18:02.149Z,11.20
2023-07-27T04:20:29.026Z,11.21
2023-07-27T04:22:55.830Z,11.23
2023-07-27T04:25:22.691Z,11.26
2023-07-27T04:27:53.104Z,11.29
2023-07-27T04:30:20.344Z,11.36
2023-07-27T04:32:47.197Z,11.37
2023-07-27T04:35:14.068Z,11.41
2023-07-27T04:37:40.851Z,11.47
2023-07-27T04:40:08.102Z,11.49
2023-07-27T04:42:34.886Z,11.56
2023-07-27T04:45:01.629Z,11.59
2023-07-27T04:47:29.405Z,11.63
2023-07-27T04:49:56.911Z,11.68
2023-07-27T04:52:23.699Z,11.62
2023-07-27T04:54:50.457Z,11.73
2023-07-27T04:57:17.248Z,11.76
2023-07-27T04:59:44.068Z,11.80
2023-07-27T05:02:10.899Z,11.84
2023-07-27T05:04:37.703Z,11.80
2023-07-27T05:07:04.711Z,11.83
2023-07-27T05:09:31.473Z,11.93
2023-07-27T05:11:58.241Z,11.99
2023-07-27T05:14:25.033Z,11.96
2023-07-27T05:16:52.873Z,12.06
2023-07-27T05:19:19.756Z,12.07
2023-07-27T05:21:46.528Z,12.12
2023-07-27T05:24:13.341Z,12.18
2023-07-27T05:26:40.306Z,12.21
2023-07-27T05:29:07.040Z,12.23
2023-07-27T05:31:33.916Z,12.32
2023-07-27T05:34:00.711Z,12.37
2023-07-27T05:36:27.494Z,12.31
2023-07-27T05:38:55.569Z,12.43
2023-07-27T05:41:22.329Z,12.45
2023-07-27T05:43:49.055Z,12.46
2023-07-27T05:46:16.403Z,12.47
2023-07-27T05:48:43.223Z,12.52
2023-07-27T05:51:10.668Z,12.58
2023-07-27T05:53:37.461Z,12.66
2023-07-27T05:56:07.390Z,12.69
2023-07-27T05:58:34.274Z,12.72
2023-07-27T06:01:04.868Z,12.77
2023-07-27T06:03:33.066Z,12.78
2023-07-27T06:06:00.486Z,12.85
2023-07-27T06:08:27.496Z,12.88
2023-07-27T06:11:05.645Z,12.94
2023-07-27T06:13:33.806Z,12.99
2023-07-27T06:16:01.340Z,13.04
2023-07-27T06:18:28.032Z,13.04
2023-07-27T06:20:55.192Z,13.11
2023-07-27T06:23:21.748Z,13.19
2023-07-27T06:25:48.250Z,13.24
2023-07-27T06:28:14.914Z,13.28
2023-07-27T06:30:41.781Z,13.30
2023-07-27T06:33:08.403Z,13.16
2023-07-27T06:35:35.488Z,13.35
2023-07-27T06:38:02.275Z,13.38
2023-07-27T06:40:29.115Z,13.37
2023-07-27T06:42:55.680Z,13.42
2023-07-27T06:45:22.236Z,13.44
2023-07-27T06:47:49.510Z,13.45
2023-07-27T06:50:16.194Z,13.40
2023-07-27T06:52:42.824Z,13.47
2023-07-27T06:55:09.607Z,13.47
2023-07-27T06:57:36.137Z,13.45
2023-07-27T07:00:04.148Z,13.43
2023-07-27T07:02:30.809Z,13.46
2023-07-27T07:04:57.418Z,13.47
2023-07-27T07:07:24.551Z,13.43
2023-07-27T07:09:51.081Z,13.43
2023-07-27T07:12:17.678Z,13.52
2023-07-27T07:14:44.199Z,13.57
2023-07-27T07:17:10.706Z,13.58
2023-07-27T07:19:37.242Z,13.63
2023-07-27T07:22:04.066Z,13.64
2023-07-27T07:24:30.593Z,13.66
2023-07-27T07:26:57.149Z,13.66
2023-07-27T07:29:23.663Z,13.65
2023-07-27T07:31:50.204Z,13.70
2023-07-27T07:34:16.750Z,13.73
2023-07-27T07:36:44.042Z,13.77
2023-07-27T07:39:10.557Z,13.79
2023-07-27T07:41:37.059Z,13.76
2023-07-27T07:44:03.730Z,13.88
2023-07-27T07:46:30.285Z,13.91
2023-07-27T07:48:58.443Z,13.99
2023-07-27T07:51:24.991Z,14.05
2023-07-27T07:53:51.486Z,14.12
2023-07-27T07:56:19.029Z,14.12
2023-07-27T07:58:46.099Z,14.15
2023-07-27T08:01:12.630Z,14.18
2023-07-27T08:03:39.446Z,14.20
2023-07-27T08:06:08.206Z,14.27
2023-07-27T08:08:35.547Z,14.26
2023-07-27T08:11:03.918Z,14.29
2023-07-27T08:13:33.758Z,14.38
2023-07-27T08:16:00.500Z,14.38
2023-07-27T08:18:29.877Z,14.35
2023-07-27T08:21:01.083Z,14.37
2023-07-27T08:23:28.954Z,14.34
2023-07-27T08:25:56.871Z,14.41
2023-07-27T08:28:24.009Z,14.39
2023-07-27T08:30:51.403Z,14.40
2023-07-27T08:33:18.262Z,14.42
2023-07-27T08:35:45.109Z,14.40
2023-07-27T08:38:12.003Z,14.41
2023-07-27T08:40:38.901Z,14.34
2023-07-27T08:43:08.527Z,14.34
2023-07-27T08:45:36.726Z,14.35
2023-07-27T08:48:04.904Z,14.33
2023-07-27T08:50:32.447Z,14.32
2023-07-27T08:52:59.211Z,14.32
2023-07-27T08:55:26.013Z,14.28
2023-07-27T08:57:52.762Z,14.34
2023-07-27T09:00:19.876Z,14.28
2023-07-27T09:02:47.201Z,14.34
2023-07-27T09:05:17.207Z,14.30
2023-07-27T09:07:50.561Z,14.30
2023-07-27T09:10:18.342Z,14.31
2023-07-27T09:12:45.045Z,14.29
2023-07-27T09:15:16.383Z,14.26
2023-07-27T09:17:43.358Z,14.11
2023-07-27T09:20:13.217Z,14.31
2023-07-27T09:22:48.768Z,14.33
2023-07-27T09:25:20.409Z,14.34
2023-07-27T09:27:47.191Z,14.31
2023-07-27T09:30:17.418Z,14.35
2023-07-27T09:32:44.404Z,14.37
2023-07-27T09:35:16.003Z,14.31
2023-07-27T09:37:53.440Z,14.42
2023-07-27T09:40:25.204Z,14.33
2023-07-27T09:42:52.604Z,14.51
2023-07-27T09:45:20.666Z,14.52
2023-07-27T09:47:49.691Z,14.52
2023-07-27T09:50:17.777Z,14.60
2023-07-27T09:52:45.702Z,14.64
2023-07-27T09:55:14.806Z,14.57
2023-07-27T09:57:42.488Z,14.74
2023-07-27T10:00:11.050Z,14.72
2023-07-27T10:02:37.913Z,14.84
2023-07-27T10:05:05.373Z,14.78
2023-07-27T10:07:44.179Z,14.92
2023-07-27T10:10:35.138Z,14.97
2023-07-27T10:13:15.369Z,14.99
2023-07-27T10:15:44.290Z,15.10
2023-07-27T10:18:15.717Z,15.13
2023-07-27T10:20:42.852Z,15.10
2023-07-27T10:23:21.218Z,15.17
2023-07-27T10:25:54.310Z,15.19
2023-07-27T10:28:31.252Z,15.24
2023-07-27T10:31:24.621Z,15.23
2023-07-27T10:34:22.820Z,15.26
2023-07-27T10:37:02.050Z,15.35
2023-07-27T10:39:34.650Z,15.39
2023-07-27T10:42:13.379Z,15.44
2023-07-27T10:44:41.012Z,15.49
2023-07-27T10:47:15.339Z,15.55
2023-07-27T10:49:49.713Z,15.63
2023-07-27T10:52:21.539Z,15.71
2023-07-27T10:54:49.697Z,15.78
2023-07-27T10:57:19.113Z,15.87
2023-07-27T10:59:48.374Z,15.83
2023-07-27T11:02:30.556Z,15.95
2023-07-27T11:04:58.624Z,16.03
2023-07-27T11:07:32.626Z,16.10
2023-07-27T11:10:00.467Z,16.15
2023-07-27T11:12:27.239Z,16.20
2023-07-27T11:14:53.862Z,16.28
2023-07-27T11:17:21.084Z,16.29
2023-07-27T11:19:48.233Z,16.30
2023-07-27T11:22:16.956Z,16.30
2023-07-27T11:24:43.772Z,16.21
2023-07-27T11:27:12.002Z,16.21
2023-07-27T11:29:40.879Z,16.13
2023-07-27T11:32:07.978Z,16.22
2023-07-27T11:34:36.290Z,16.26
2023-07-27T11:37:02.956Z,16.22
2023-07-27T11:39:30.578Z,16.28
2023-07-27T11:42:04.211Z,16.27
2023-07-27T11:44:30.816Z,16.31
2023-07-27T11:46:57.463Z,16.27
2023-07-27T11:49:24.255Z,16.27
2023-07-27T11:51:51.165Z,16.24
2023-07-27T11:54:28.363Z,16.29
2023-07-27T11:56:58.218Z,16.27
2023-07-27T11:59:25.116Z,16.28
2023-07-27T12:01:53.326Z,16.31
2023-07-27T12:04:21.476Z,16.19
2023-07-27T12:06:49.044Z,16.13
2023-07-27T12:09:15.782Z,16.24
2023-07-27T12:11:42.392Z,16.18
2023-07-27T12:14:10.161Z,16.09
2023-07-27T12:19:08.807Z,15.93
2023-07-27T12:21:36.841Z,15.84
2023-07-27T12:34:08.078Z,15.67
2023-07-27T12:36:34.695Z,15.68
2023-07-27T12:39:01.295Z,15.64
2023-07-27T12:41:27.838Z,15.59
2023-07-27T12:43:56.143Z,15.57
2023-07-27T12:46:23.060Z,15.46
2023-07-27T12:48:49.762Z,15.56
2023-07-27T12:51:17.074Z,15.56
2023-07-27T12:53:43.822Z,15.49
2023-07-27T12:56:10.699Z,15.59
2023-07-27T12:59:06.830Z,15.58
2023-07-27T13:01:33.723Z,15.55
2023-07-27T13:04:00.996Z,15.56
2023-07-27T13:06:27.841Z,15.50
2023-07-27T13:08:54.752Z,15.52
2023-07-27T13:11:22.375Z,15.48
2023-07-27T13:13:49.082Z,15.41
2023-07-27T13:16:15.840Z,15.40
2023-07-27T13:18:42.575Z,15.33
2023-07-27T13:21:09.378Z,15.37
2023-07-27T13:23:36.215Z,15.28
2023-07-27T13:26:07.182Z,15.35
2023-07-27T13:28:34.147Z,15.27
2023-07-27T13:31:01.116Z,15.37
2023-07-27T13:33:28.175Z,15.33
2023-07-27T13:35:54.957Z,15.28
2023-07-27T13:38:21.784Z,15.27
2023-07-27T13:40:48.615Z,15.29
2023-07-27T13:43:15.337Z,15.28
2023-07-27T13:45:42.115Z,15.30
2023-07-27T13:48:10.508Z,15.28
2023-07-27T13:50:38.186Z,15.25
2023-07-27T13:53:09.797Z,15.10
2023-07-27T13:55:36.965Z,15.26
2023-07-27T13:58:03.941Z,15.25
2023-07-27T14:00:30.699Z,15.25
2023-07-27T14:02:57.686Z,15.23
2023-07-27T14:05:24.577Z,15.23
2023-07-27T14:07:51.447Z,15.21
2023-07-27T14:10:18.436Z,15.21
2023-07-27T14:12:45.244Z,15.22
2023-07-27T14:15:12.061Z,15.20
2023-07-27T14:17:38.921Z,15.35
2023-07-27T14:20:07.371Z,15.39
2023-07-27T14:22:36.542Z,15.40
2023-07-27T14:25:04.436Z,15.42
2023-07-27T14:30:02.850Z,15.47
2023-07-27T14:32:31.029Z,15.57
2023-07-27T14:34:58.970Z,15.57
2023-07-27T14:37:25.805Z,15.57
2023-07-27T14:39:52.816Z,15.69
2023-07-27T14:42:19.925Z,15.76
2023-07-27T14:44:48.485Z,15.77
2023-07-27T14:47:15.806Z,15.83
2023-07-27T14:49:42.671Z,15.77
2023-07-27T14:52:09.954Z,15.75
2023-07-27T14:54:36.733Z,15.76
2023-07-27T14:57:06.193Z,15.80
2023-07-27T14:59:43.645Z,15.77
2023-07-27T15:02:28.028Z,15.69
2023-07-27T15:04:55.563Z,15.71
2023-07-27T15:07:22.562Z,15.72
2023-07-27T15:09:50.690Z,15.71
2023-07-27T15:12:17.473Z,15.61
2023-07-27T15:14:44.206Z,15.69
2023-07-27T15:17:10.990Z,15.64
2023-07-27T15:19:37.727Z,15.76
2023-07-27T15:22:05.534Z,15.75
2023-07-27T15:24:34.533Z,15.78
2023-07-27T15:27:03.891Z,15.72
2023-07-27T15:29:30.929Z,15.80
2023-07-27T15:31:57.706Z,15.83
2023-07-27T15:34:24.415Z,15.87
2023-07-27T15:36:51.133Z,16.06
2023-07-27T15:39:17.841Z,16.13
2023-07-27T15:41:44.569Z,16.09
2023-07-27T15:44:11.271Z,16.08
2023-07-27T15:46:38.236Z,15.97
2023-07-27T15:49:05.348Z,15.97
2023-07-27T15:51:32.113Z,15.93
2023-07-27T15:53:58.861Z,15.92
2023-07-27T15:56:25.568Z,16.05
2023-07-27T15:58:52.302Z,15.79
2023-07-27T16:01:19.077Z,15.97
2023-07-27T16:03:45.984Z,15.94
2023-07-27T16:06:12.816Z,15.99
2023-07-27T16:08:39.750Z,15.98
2023-07-27T16:11:11.514Z,15.91
2023-07-27T16:13:38.751Z,15.99
2023-07-27T16:16:05.648Z,16.09
2023-07-27T16:18:35.685Z,16.21
2023-07-27T16:21:03.543Z,16.26
2023-07-27T16:23:32.150Z,16.29
2023-07-27T16:26:06.731Z,16.39
2023-07-27T16:28:34.047Z,16.51
2023-07-27T16:31:00.856Z,16.55
2023-07-27T16:33:27.646Z,16.53
2023-07-27T16:35:54.437Z,16.59
2023-07-27T16:38:21.190Z,16.63
2023-07-27T16:40:53.944Z,16.63
2023-07-27T16:43:21.130Z,16.70
2023-07-27T16:45:47.687Z,16.62
2023-07-27T16:48:14.478Z,16.72
2023-07-27T16:50:41.313Z,16.74
2023-07-27T16:53:07.994Z,16.81
2023-07-27T16:55:37.160Z,16.79
2023-07-27T16:58:03.819Z,16.74
2023-07-27T17:00:34.399Z,16.69
2023-07-27T17:03:01.137Z,16.65
2023-07-27T17:05:27.833Z,16.64
2023-07-27T17:07:54.568Z,16.63
2023-07-27T17:10:21.101Z,16.56
2023-07-27T17:12:47.642Z,16.59
2023-07-27T17:15:14.247Z,16.56
2023-07-27T17:17:40.793Z,16.57
2023-07-27T17:20:07.808Z,16.52
2023-07-27T17:22:34.312Z,16.57
2023-07-27T17:25:00.825Z,16.58
2023-07-27T17:27:27.384Z,16.66
2023-07-27T17:29:53.959Z,16.63
2023-07-27T17:32:21.425Z,16.68
2023-07-27T17:34:48.013Z,16.67
2023-07-27T17:37:14.556Z,16.63
2023-07-27T17:39:42.392Z,16.65
2023-07-27T17:42:08.985Z,16.63
2023-07-27T17:44:35.516Z,16.59
2023-07-27T17:47:02.082Z,16.58
2023-07-27T17:49:28.817Z,16.56
2023-07-27T17:51:55.358Z,16.57
2023-07-27T17:54:21.876Z,16.60
2023-07-27T17:56:48.538Z,16.63
2023-07-27T17:59:15.063Z,16.62
2023-07-27T18:01:41.661Z,16.69
2023-07-27T18:04:08.691Z,16.71
2023-07-27T18:06:35.266Z,16.68
2023-07-27T18:09:01.879Z,16.71
2023-07-27T18:11:28.405Z,16.61
2023-07-27T18:13:54.941Z,16.57
2023-07-27T18:18:48.076Z,16.59
2023-07-27T18:21:17.331Z,16.56
2023-07-27T18:23:44.949Z,16.55
2023-07-27T18:26:19.406Z,16.51
2023-07-27T18:28:47.049Z,16.53
2023-07-27T18:31:13.666Z,16.49
2023-07-27T18:33:40.324Z,16.45
2023-07-27T18:36:16.085Z,16.48
2023-07-27T18:38:45.497Z,16.45
2023-07-27T18:41:17.594Z,16.31
2023-07-27T18:43:44.791Z,16.33
2023-07-27T18:46:17.298Z,16.35
2023-07-27T18:48:44.531Z,16.36
2023-07-27T18:51:11.550Z,16.33
2023-07-27T18:53:38.283Z,16.36
2023-07-27T18:56:05.232Z,16.28
2023-07-27T18:58:32.015Z,16.41
2023-07-27T19:00:58.852Z,16.46
2023-07-27T19:03:27.661Z,16.44
2023-07-27T19:05:54.513Z,16.41
2023-07-27T19:08:21.588Z,16.40
2023-07-27T19:10:48.733Z,16.47
2023-07-27T19:13:15.495Z,16.42
2023-07-27T19:15:49.583Z,16.42
2023-07-27T19:18:17.410Z,16.37
2023-07-27T19:20:44.344Z,16.45
2023-07-27T19:23:11.285Z,16.41
2023-07-27T19:25:42.865Z,16.50
2023-07-27T19:28:11.645Z,16.53
2023-07-27T19:30:40.206Z,16.47
2023-07-27T19:33:10.949Z,16.51
2023-07-27T19:35:38.873Z,16.59
2023-07-27T19:38:07.098Z,16.60
2023-07-27T19:40:34.519Z,16.64
2023-07-27T19:43:01.307Z,16.62
2023-07-27T19:45:28.234Z,16.60
2023-07-27T19:47:55.059Z,16.59
2023-07-27T19:50:21.847Z,16.58
2023-07-27T19:52:48.586Z,16.53
2023-07-27T19:55:15.436Z,16.55
2023-07-27T19:57:42.168Z,16.57
2023-07-27T20:00:10.571Z,16.59
2023-07-27T20:02:37.398Z,16.55
2023-07-27T20:05:04.653Z,16.49
2023-07-27T20:07:31.372Z,16.43
2023-07-27T20:09:58.188Z,16.30
2023-07-27T20:12:25.017Z,16.32
2023-07-27T20:14:51.737Z,16.32
2023-07-27T20:17:18.887Z,16.29
2023-07-27T20:19:45.740Z,16.27
2023-07-27T20:22:12.511Z,16.32
2023-07-27T20:24:40.872Z,16.19
2023-07-27T20:27:09.831Z,16.37
2023-07-27T20:29:36.547Z,16.31
2023-07-27T20:32:03.564Z,16.38
2023-07-27T20:34:30.395Z,16.40
2023-07-27T20:36:57.138Z,16.44
2023-07-27T20:39:24.184Z,16.38
2023-07-27T20:41:54.652Z,16.44
2023-07-27T20:44:22.018Z,16.46
2023-07-27T20:46:48.861Z,16.45
2023-07-27T20:49:15.619Z,16.48
2023-07-27T20:51:42.569Z,16.48
2023-07-27T20:54:09.347Z,16.27
2023-07-27T20:56:36.425Z,16.48
2023-07-27T20:59:03.448Z,16.53
2023-07-27T21:01:30.219Z,16.50
2023-07-27T21:03:58.300Z,16.49
2023-07-27T21:06:26.014Z,16.54
2023-07-27T21:08:53.413Z,16.55
2023-07-27T21:11:20.340Z,16.53
2023-07-27T21:13:47.182Z,16.53
2023-07-27T21:16:14.029Z,16.52
2023-07-27T21:18:40.775Z,16.50
2023-07-27T21:21:18.640Z,16.50
2023-07-27T21:23:49.259Z,16.50
2023-07-27T21:26:16.178Z,16.45
2023-07-27T21:28:44.722Z,16.44
2023-07-27T21:31:11.718Z,16.44
2023-07-27T21:33:38.952Z,16.47
2023-07-27T21:36:07.189Z,16.49
2023-07-27T21:38:34.187Z,16.47
2023-07-27T21:41:01.015Z,16.47
2023-07-27T21:43:28.914Z,16.37
2023-07-27T21:45:56.231Z,16.39
2023-07-27T21:48:23.190Z,16.48
2023-07-27T21:50:52.445Z,16.50
2023-07-27T21:53:19.566Z,16.45
2023-07-27T21:55:46.959Z,16.51
2023-07-27T21:58:13.955Z,16.54
2023-07-27T22:00:40.756Z,16.56
2023-07-27T22:03:08.150Z,16.56
2023-07-27T22:05:35.021Z,16.52
2023-07-27T22:08:02.277Z,16.42
2023-07-27T22:10:29.066Z,16.48
2023-07-27T22:12:55.784Z,16.44
2023-07-27T22:15:22.529Z,16.41
2023-07-27T22:17:49.717Z,16.40
2023-07-27T22:20:17.048Z,16.26
2023-07-27T22:22:43.858Z,16.37
2023-07-27T22:25:11.319Z,16.33
2023-07-27T22:27:38.553Z,16.26
2023-07-27T22:30:07.117Z,16.35
2023-07-27T22:32:34.085Z,16.27
2023-07-27T22:35:00.960Z,16.21
2023-07-27T22:37:27.615Z,16.29
2023-07-27T22:39:54.249Z,16.24
2023-07-27T22:42:20.950Z,16.30
2023-07-27T22:44:47.668Z,16.29
2023-07-27T22:47:14.278Z,16.38
2023-07-27T22:49:41.416Z,16.27
2023-07-27T22:52:08.132Z,16.32
2023-07-27T22:54:34.700Z,16.23
2023-07-27T22:57:01.240Z,16.23
2023-07-27T22:59:28.014Z,16.32
2023-07-27T23:01:55.998Z,16.32
2023-07-27T23:04:22.596Z,16.31
2023-07-27T23:06:49.157Z,16.32
2023-07-27T23:09:16.071Z,16.33
2023-07-27T23:11:42.618Z,16.33
2023-07-27T23:14:09.731Z,16.27
2023-07-27T23:16:36.702Z,16.30
2023-07-27T23:19:03.568Z,16.11
2023-07-27T23:21:30.145Z,16.30
2023-07-27T23:23:56.694Z,16.31
2023-07-27T23:26:23.224Z,16.31
2023-07-27T23:28:49.750Z,16.27
2023-07-27T23:31:16.284Z,16.29
2023-07-27T23:33:43.363Z,16.29
2023-07-27T23:36:12.319Z,16.29
2023-07-27T23:38:39.812Z,16.27
2023-07-27T23:41:06.612Z,16.20
2023-07-27T23:43:33.150Z,16.24
2023-07-27T23:45:59.705Z,16.19
2023-07-27T23:48:26.335Z,16.23
2023-07-27T23:50:52.933Z,16.24
2023-07-27T23:53:19.484Z,16.27
2023-07-27T23:55:46.054Z,16.27
2023-07-27T23:58:12.617Z,16.27
